Time;durP1;ratioP1;P1;durP2;ratioP2;P2;SDS_P1;SDS_P2;PMS_P1;PMS_P2;Temp;Humidity;BMP_temperature;BMP_pressure;BME280_temperature;BME280_humidity;BME280_pressure;Samples;Min_cycle;Max_cycle;Signal;HPM_P1;HPM_P2
2021/04/01 00:04:46;;;;;;;1999.90;999.90;;;;;;;11.79;56.75;101211.31;15569776;28;20406;-60
2021/04/01 00:12:18;;;;;;;1999.90;999.90;;;;;;;11.68;57.80;101204.41;15564721;28;20153;-62
2021/04/01 00:19:50;;;;;;;1999.90;999.90;;;;;;;11.51;58.41;101200.44;15591161;28;20112;-59
2021/04/01 00:27:24;;;;;;;1999.90;999.90;;;;;;;11.91;57.31;101189.13;15581145;28;20057;-63
2021/04/01 00:34:56;;;;;;;1999.90;999.90;;;;;;;11.78;57.58;101174.13;15660672;28;20053;-61
2021/04/01 00:42:29;;;;;;;1999.90;999.90;;;;;;;11.78;57.77;101164.94;15588499;28;20120;-62
2021/04/01 00:50:01;;;;;;;1999.90;999.90;;;;;;;11.70;57.94;101168.53;15610881;28;20070;-62
2021/04/01 00:57:34;;;;;;;1999.90;999.90;;;;;;;11.69;58.28;101164.94;15633800;28;20474;-61
2021/04/01 01:05:08;;;;;;;1999.90;999.90;;;;;;;11.70;58.24;101154.56;15649615;28;20065;-61
2021/04/01 01:12:41;;;;;;;1999.90;999.90;;;;;;;11.52;59.05;101145.34;15659862;28;20383;-61
2021/04/01 01:20:15;;;;;;;1999.90;999.90;;;;;;;11.31;59.44;101147.97;15619235;28;20053;-63
2021/04/01 01:27:48;;;;;;;1999.90;999.90;;;;;;;11.15;59.74;101130.03;15657719;28;20379;-63
2021/04/01 01:35:23;;;;;;;1999.90;999.90;;;;;;;11.06;59.76;101132.03;15659345;28;20123;-62
2021/04/01 01:42:59;;;;;;;1999.90;999.90;;;;;;;10.92;60.47;101119.00;15643781;28;20053;-61
2021/04/01 01:50:33;;;;;;;1999.90;999.90;;;;;;;10.85;60.10;101124.25;15636593;28;20045;-62
2021/04/01 01:58:06;;;;;;;1999.90;999.90;;;;;;;10.69;61.49;101123.06;15649473;28;20489;-62
2021/04/01 02:05:39;;;;;;;1999.90;999.90;;;;;;;10.87;60.88;101115.56;15658258;28;20091;-62
2021/04/01 02:13:16;;;;;;;1999.90;999.90;;;;;;;10.91;60.34;101113.75;15653272;28;20127;-62
2021/04/01 02:20:49;;;;;;;1999.90;999.90;;;;;;;10.95;60.66;101123.97;15616229;28;20041;-62
2021/04/01 02:28:24;;;;;;;1999.90;999.90;;;;;;;10.81;60.30;101106.50;15649488;28;20049;-62
2021/04/01 02:35:56;;;;;;;1999.90;999.90;;;;;;;10.98;59.58;101103.75;15611927;28;20056;-59
2021/04/01 02:43:32;;;;;;;1999.90;999.90;;;;;;;11.07;60.71;101106.56;15656099;28;20073;-62
2021/04/01 02:51:04;;;;;;;1999.90;999.90;;;;;;;10.92;60.95;101099.47;15607740;28;20041;-60
2021/04/01 02:58:38;;;;;;;1999.90;999.90;;;;;;;11.03;60.81;101101.94;15592377;28;20114;-62
2021/04/01 03:06:10;;;;;;;1999.90;999.90;;;;;;;10.96;60.81;101102.44;15631484;28;20048;-62
2021/04/01 03:13:42;;;;;;;1999.90;999.90;;;;;;;10.91;61.03;101099.78;15638839;28;20122;-62
2021/04/01 03:21:14;;;;;;;1999.90;999.90;;;;;;;10.91;61.27;101095.03;15607959;28;20128;-62
2021/04/01 03:28:46;;;;;;;1999.90;999.90;;;;;;;10.99;60.88;101088.63;15652527;28;20042;-60
2021/04/01 03:36:18;;;;;;;1999.90;999.90;;;;;;;10.98;61.46;101087.00;15640481;28;20041;-61
2021/04/01 03:43:50;;;;;;;1999.90;999.90;;;;;;;11.00;61.48;101078.28;15603366;28;20041;-62
2021/04/01 03:51:22;;;;;;;1999.90;999.90;;;;;;;10.91;61.69;101088.63;15628818;28;20041;-61
2021/04/01 03:59:00;;;;;;;1999.90;999.90;;;;;;;10.94;61.76;101091.59;15617097;28;20057;-61
2021/04/01 04:14:23;;;;;;;1999.90;999.90;;;;;;;11.13;61.30;101070.91;15580898;28;20065;-60
2021/04/01 04:21:54;;;;;;;1999.90;999.90;;;;;;;11.06;60.82;101077.00;15639091;28;20087;-62
2021/04/01 04:29:26;;;;;;;1999.90;999.90;;;;;;;11.08;60.82;101076.66;15634457;28;20052;-60
2021/04/01 04:36:58;;;;;;;1999.90;999.90;;;;;;;10.89;61.95;101068.59;15627203;28;20366;-60
2021/04/01 04:44:30;;;;;;;1999.90;999.90;;;;;;;10.93;61.60;101066.78;15646276;28;20523;-62
2021/04/01 04:52:02;;;;;;;1999.90;999.90;;;;;;;10.80;61.78;101054.63;15640635;28;20703;-63
2021/04/01 04:59:41;;;;;;;1999.90;999.90;;;;;;;10.91;62.23;101061.53;15602552;28;20041;-62
2021/04/01 05:07:12;;;;;;;1999.90;999.90;;;;;;;11.09;62.42;101072.72;15602390;28;20115;-62
2021/04/01 05:14:46;;;;;;;1999.90;999.90;;;;;;;11.30;61.90;101075.69;15658977;28;20243;-62
2021/04/01 05:22:21;;;;;;;1999.90;999.90;;;;;;;11.62;59.19;101082.72;15615833;28;20051;-61
2021/04/01 05:29:59;;;;;;;1999.90;999.90;;;;;;;11.83;60.29;101076.13;15636268;28;20076;-62
2021/04/01 05:37:31;;;;;;;1999.90;999.90;;;;;;;12.09;60.01;101097.63;15654360;28;20074;-63
2021/04/01 05:45:10;;;;;;;1999.90;999.90;;;;;;;12.54;59.11;101094.28;15646897;28;20041;-61
2021/04/01 06:00:53;;;;;;;1999.90;999.90;;;;;;;13.43;59.07;101083.78;15621608;28;20049;-61
2021/04/01 06:08:29;;;;;;;1999.90;999.90;;;;;;;13.92;53.48;101120.44;15638335;28;20037;-62
2021/04/01 06:16:04;;;;;;;1999.90;999.90;;;;;;;13.84;55.23;101116.56;15616324;28;20052;-61
2021/04/01 06:23:41;;;;;;;1999.90;999.90;;;;;;;14.21;53.53;101120.28;15644453;28;20563;-61
2021/04/01 06:31:20;;;;;;;1999.90;999.90;;;;;;;14.53;52.84;101112.16;15650148;28;20045;-61
2021/04/01 06:38:52;;;;;;;1999.90;999.90;;;;;;;14.79;52.22;101120.22;15615016;28;20044;-61
2021/04/01 06:46:26;;;;;;;1999.90;999.90;;;;;;;15.22;50.92;101139.28;15646888;28;20098;-62
2021/04/01 06:54:06;;;;;;;1999.90;999.90;;;;;;;15.72;50.35;101129.53;15645388;28;20136;-62
2021/04/01 07:01:46;;;;;;;1999.90;999.90;;;;;;;16.25;48.66;101136.66;15621140;28;20118;-61
2021/04/01 07:09:31;;;;;;;1999.90;999.90;;;;;;;16.85;47.94;101125.31;15626763;28;20391;-61
2021/04/01 07:17:12;;;;;;;1999.90;999.90;;;;;;;17.01;46.22;101121.31;15645584;28;20045;-62
2021/04/01 07:33:02;;;;;;;1999.90;999.90;;;;;;;17.36;45.23;101126.13;15653270;28;20059;-63
2021/04/01 07:48:42;;;;;;;1999.90;999.90;;;;;;;18.96;42.71;101134.00;15613446;28;20056;-62
2021/04/01 07:56:18;;;;;;;1999.90;999.90;;;;;;;19.30;42.51;101146.25;15619353;28;20136;-63
2021/04/01 08:03:56;;;;;;;1999.90;999.90;;;;;;;19.63;43.47;101141.88;15667926;28;20216;-62
2021/04/01 08:11:31;;;;;;;1999.90;999.90;;;;;;;20.80;40.69;101131.81;15620820;28;20034;-61
2021/04/01 08:19:04;;;;;;;1999.90;999.90;;;;;;;23.16;37.96;101119.22;15607112;28;20240;-63
2021/04/01 08:26:59;;;;;;;1999.90;999.90;;;;;;;24.57;33.70;101124.69;15614100;28;20394;-61
2021/04/01 08:34:39;;;;;;;1999.90;999.90;;;;;;;25.51;31.13;101121.34;15655684;28;20564;-63
2021/04/01 08:42:59;;;;;;;1999.90;999.90;;;;;;;25.16;30.85;101116.84;15578797;28;20049;-63
2021/04/01 08:50:36;;;;;;;1999.90;999.90;;;;;;;23.83;33.30;101126.75;15627454;28;20033;-62
2021/04/01 08:58:16;;;;;;;1999.90;999.90;;;;;;;22.92;33.66;101138.75;15603639;28;20048;-64
2021/04/01 09:05:55;;;;;;;1999.90;999.90;;;;;;;22.30;35.65;101139.13;15640314;28;20481;-59
2021/04/01 09:13:30;;;;;;;1999.90;999.90;;;;;;;21.87;35.53;101144.63;15607680;28;20093;-63
2021/04/01 09:21:05;;;;;;;1999.90;999.90;;;;;;;21.61;36.65;101137.22;15659934;28;20379;-60
2021/04/01 09:28:38;;;;;;;1999.90;999.90;;;;;;;20.86;39.71;101130.25;15597400;28;20533;-62
2021/04/01 09:36:13;;;;;;;1999.90;999.90;;;;;;;20.22;42.38;101121.16;15583777;28;20129;-63
2021/04/01 09:43:50;;;;;;;1999.90;999.90;;;;;;;20.53;45.17;101134.03;15618101;28;20060;-61
2021/04/01 09:51:22;;;;;;;1999.90;999.90;;;;;;;20.08;46.32;101116.13;15614438;28;20049;-63
2021/04/01 09:58:57;;;;;;;1999.90;999.90;;;;;;;20.85;44.33;101099.44;15618079;28;20426;-62
2021/04/01 10:06:36;;;;;;;1999.90;999.90;;;;;;;21.44;44.14;101103.88;15639688;28;20513;-64
2021/04/01 10:14:10;;;;;;;1999.90;999.90;;;;;;;21.37;42.51;101108.72;15637943;28;20068;-62
2021/04/01 10:21:45;;;;;;;1999.90;999.90;;;;;;;21.13;42.63;101104.47;15623303;28;20045;-62
2021/04/01 10:29:17;;;;;;;1999.90;999.90;;;;;;;21.28;40.91;101092.88;15645487;28;20494;-60
2021/04/01 10:36:51;;;;;;;1999.90;999.90;;;;;;;21.75;39.15;101084.53;15592585;28;20080;-57
2021/04/01 10:44:23;;;;;;;1999.90;999.90;;;;;;;22.03;38.34;101073.25;15644463;28;20056;-62
2021/04/01 10:51:57;;;;;;;1999.90;999.90;;;;;;;21.62;38.31;101067.06;15601876;28;20088;-59
2021/04/01 10:59:40;;;;;;;1999.90;999.90;;;;;;;21.21;40.05;101078.59;15609327;28;20304;-66
2021/04/01 11:07:13;;;;;;;1999.90;999.90;;;;;;;21.46;39.73;101069.41;15606953;28;20124;-63
2021/04/01 11:14:47;;;;;;;1999.90;999.90;;;;;;;21.08;38.81;101065.97;15618467;28;20041;-57
2021/04/01 11:22:20;;;;;;;1999.90;999.90;;;;;;;21.24;39.12;101060.75;15608290;28;20037;-57
2021/04/01 11:29:56;;;;;;;1999.90;999.90;;;;;;;20.51;43.42;101082.56;15608214;28;20045;-57
2021/04/01 11:37:33;;;;;;;1999.90;999.90;;;;;;;19.76;47.79;101080.97;15620352;28;20504;-58
2021/04/01 11:45:08;;;;;;;1999.90;999.90;;;;;;;19.70;46.91;101068.38;15611230;28;20038;-59
2021/04/01 11:52:40;;;;;;;1999.90;999.90;;;;;;;19.62;47.33;101073.13;15624333;28;20049;-55
2021/04/01 12:00:17;;;;;;;1999.90;999.90;;;;;;;19.44;49.07;101069.22;15621571;28;20037;-56
2021/04/01 12:07:50;;;;;;;1999.90;999.90;;;;;;;19.75;49.84;101053.88;15602455;28;20041;-57
2021/04/01 12:15:29;;;;;;;1999.90;999.90;;;;;;;19.84;47.46;101057.19;15615858;28;20048;-62
2021/04/01 12:23:09;;;;;;;1999.90;999.90;;;;;;;19.71;50.60;101073.66;15618602;28;20084;-62
2021/04/01 12:30:41;;;;;;;1999.90;999.90;;;;;;;19.80;47.77;101077.00;15587622;28;20073;-62
2021/04/01 12:38:14;;;;;;;1999.90;999.90;;;;;;;18.89;51.92;101072.53;15606823;28;20053;-60
2021/04/01 12:45:53;;;;;;;1999.90;999.90;;;;;;;21.38;48.60;101076.28;15560488;28;20073;-61
2021/04/01 12:53:26;;;;;;;1999.90;999.90;;;;;;;20.27;46.05;101080.28;15600156;28;20064;-60
2021/04/01 13:01:01;;;;;;;1999.90;999.90;;;;;;;23.72;37.64;101077.56;15598574;28;20042;-62
2021/04/01 13:16:19;;;;;;;1999.90;999.90;;;;;;;23.41;38.21;101070.75;15540313;28;20053;-59
2021/04/01 13:24:00;;;;;;;1999.90;999.90;;;;;;;22.43;39.74;101062.78;15610200;28;20053;-58
2021/04/01 13:31:45;;;;;;;1999.90;999.90;;;;;;;20.79;42.32;101066.97;15653096;28;20075;-59
2021/04/01 13:39:20;;;;;;;1999.90;999.90;;;;;;;20.54;42.72;101070.44;15600631;28;20386;-61
2021/04/01 13:46:52;;;;;;;1999.90;999.90;;;;;;;20.75;41.88;101073.44;15642988;28;21437;-61
2021/04/01 13:54:36;;;;;;;1999.90;999.90;;;;;;;20.58;41.78;101082.63;15639547;28;20450;-59
2021/04/01 14:10:01;;;;;;;1999.90;999.90;;;;;;;21.44;40.15;101097.38;15587042;28;20355;-60
2021/04/01 14:17:34;;;;;;;1999.90;999.90;;;;;;;20.74;39.46;101107.88;15599485;28;20258;-61
2021/04/01 14:25:14;;;;;;;1999.90;999.90;;;;;;;20.07;40.71;101111.66;15589452;28;20120;-63
2021/04/01 14:32:46;;;;;;;1999.90;999.90;;;;;;;19.14;43.22;101126.63;15553661;28;20350;-61
2021/04/01 14:40:21;;;;;;;1999.90;999.90;;;;;;;18.67;43.78;101121.47;15562670;28;20049;-60
2021/04/01 14:47:53;;;;;;;1999.90;999.90;;;;;;;18.23;45.48;101137.97;15541849;28;20030;-52
2021/04/01 14:55:26;;;;;;;1999.90;999.90;;;;;;;18.38;45.48;101132.22;15541307;28;20061;-56
2021/04/01 15:02:59;;;;;;;1999.90;999.90;;;;;;;18.30;47.18;101146.59;15546143;28;20553;-58
2021/04/01 15:10:34;;;;;;;1999.90;999.90;;;;;;;18.09;50.31;101155.47;15534795;28;20048;-59
2021/04/01 15:18:08;;;;;;;1999.90;999.90;;;;;;;17.24;52.65;101163.72;15584142;28;20486;-59
2021/04/01 15:25:41;;;;;;;1999.90;999.90;;;;;;;16.96;53.32;101177.13;15598429;28;20102;-59
2021/04/01 15:33:13;;;;;;;1999.90;999.90;;;;;;;16.74;53.83;101189.88;15646329;28;20125;-59
2021/04/01 15:40:45;;;;;;;1999.90;999.90;;;;;;;16.30;54.50;101191.91;15612229;28;20159;-56
2021/04/01 15:48:17;;;;;;;1999.90;999.90;;;;;;;16.00;54.97;101213.97;15588384;28;20025;-59
2021/04/01 15:55:49;;;;;;;1999.90;999.90;;;;;;;15.70;55.82;101228.38;15641854;28;20075;-60
2021/04/01 16:03:21;;;;;;;1999.90;999.90;;;;;;;14.96;57.84;101247.28;15598611;28;20514;-59
2021/04/01 16:10:53;;;;;;;1999.90;999.90;;;;;;;14.31;59.52;101250.97;15651913;28;20056;-58
2021/04/01 16:18:25;;;;;;;1999.90;999.90;;;;;;;13.90;60.88;101257.44;15621787;28;20394;-59
2021/04/01 16:25:57;;;;;;;1999.90;999.90;;;;;;;14.07;60.28;101274.97;15653747;28;20483;-57
2021/04/01 16:33:30;;;;;;;1999.90;999.90;;;;;;;13.83;61.14;101269.19;15619960;28;20048;-58
2021/04/01 16:41:03;;;;;;;1999.90;999.90;;;;;;;13.89;61.05;101281.88;15633706;28;20045;-58
2021/04/01 16:48:35;;;;;;;1999.90;999.90;;;;;;;13.16;62.42;101284.09;15547114;28;20041;-57
2021/04/01 16:56:11;;;;;;;1999.90;999.90;;;;;;;12.84;63.63;101282.75;15645288;23;20061;-63
2021/04/01 17:03:43;;;;;;;1999.90;999.90;;;;;;;12.84;62.71;101283.56;15618526;28;20086;-62
2021/04/01 17:11:20;;;;;;;1999.90;999.90;;;;;;;13.08;61.51;101296.16;15577207;28;20050;-62
2021/04/01 17:18:51;;;;;;;1999.90;999.90;;;;;;;12.80;62.05;101298.56;15590108;28;20444;-62
2021/04/01 17:26:24;;;;;;;1999.90;999.90;;;;;;;12.73;61.34;101299.09;15615154;28;20053;-60
2021/04/01 17:33:56;;;;;;;1999.90;999.90;;;;;;;12.84;61.45;101313.56;15636968;28;20061;-62
2021/04/01 17:41:28;;;;;;;1999.90;999.90;;;;;;;12.52;62.44;101312.97;15601336;28;20101;-60
2021/04/01 17:49:00;;;;;;;1999.90;999.90;;;;;;;12.20;62.79;101328.31;15625392;28;20045;-60
2021/04/01 17:56:32;;;;;;;1999.90;999.90;;;;;;;12.21;62.79;101334.72;15654970;28;20049;-61
2021/04/01 18:04:16;;;;;;;1999.90;999.90;;;;;;;12.21;62.45;101351.50;15622204;28;20601;-61
2021/04/01 18:27:34;;;;;;;1999.90;999.90;;;;;;;11.59;64.11;101405.66;15623070;28;20072;-61
2021/04/01 18:35:18;;;;;;;1999.90;999.90;;;;;;;11.10;65.15;101410.34;15635071;28;20076;-58
2021/04/01 18:42:52;;;;;;;;;;;;;;;11.38;64.92;101422.16;15607034;28;20041;-61
2021/04/01 18:50:25;;;;;;;1999.90;999.90;;;;;;;11.07;65.82;101416.56;15618175;28;19956;-60
2021/04/01 18:58:00;;;;;;;1999.90;999.90;;;;;;;11.42;64.80;101430.72;15558175;28;20121;-60
2021/04/01 19:05:36;;;;;;;1999.90;999.90;;;;;;;10.94;66.22;101446.22;15564658;28;20049;-60
2021/04/01 19:28:52;;;;;;;1999.90;999.90;;;;;;;10.94;66.37;101457.41;15594341;28;20038;-56
2021/04/01 19:36:24;;;;;;;1999.90;999.90;;;;;;;10.80;68.38;101462.19;15558092;28;20355;-60
2021/04/01 19:43:59;;;;;;;1999.90;999.90;;;;;;;10.84;70.11;101468.00;15575738;28;20053;-61
2021/04/01 19:51:30;;;;;;;1999.90;999.90;;;;;;;10.45;72.22;101471.44;15565374;28;20107;-61
2021/04/01 19:59:06;;;;;;;1999.90;999.90;;;;;;;10.27;73.81;101476.81;15590394;28;20045;-53
2021/04/01 20:06:38;;;;;;;1999.90;999.90;;;;;;;10.43;73.80;101480.13;15606905;28;20129;-58
2021/04/01 20:14:16;;;;;;;1999.90;999.90;;;;;;;10.28;74.64;101495.22;15567227;28;20057;-62
2021/04/01 20:21:48;;;;;;;1999.90;999.90;;;;;;;9.70;75.43;101481.91;15612585;28;20578;-60
2021/04/01 20:29:22;;;;;;;1999.90;999.90;;;;;;;9.86;74.13;101498.31;15585322;28;20110;-60
2021/04/01 20:36:54;;;;;;;1999.90;999.90;;;;;;;9.93;71.52;101507.09;15612266;28;20049;-59
2021/04/01 20:44:26;;;;;;;1999.90;999.90;;;;;;;9.91;70.62;101512.16;15601885;28;20121;-58
2021/04/01 20:51:59;;;;;;;1999.90;999.90;;;;;;;9.91;70.29;101515.78;15600401;28;20443;-58
2021/04/01 20:59:32;;;;;;;1999.90;999.90;;;;;;;9.69;70.15;101516.47;15600971;28;20045;-62
2021/04/01 21:07:04;;;;;;;1999.90;999.90;;;;;;;9.67;69.00;101520.69;15598296;28;20041;-60
2021/04/01 21:14:37;;;;;;;1999.90;999.90;;;;;;;9.38;68.49;101543.22;15600171;28;20042;-62
2021/04/01 21:22:08;;;;;;;1999.90;999.90;;;;;;;9.44;68.03;101550.38;15602169;28;20065;-60
2021/04/01 21:29:41;;;;;;;1999.90;999.90;;;;;;;8.88;68.34;101551.28;15616836;28;20401;-59
2021/04/01 21:37:12;;;;;;;1999.90;999.90;;;;;;;8.98;68.02;101555.88;15614999;28;20045;-62
2021/04/01 21:44:45;;;;;;;1999.90;999.90;;;;;;;8.82;68.15;101569.16;15615020;28;20493;-59
2021/04/01 21:52:17;;;;;;;1999.90;999.90;;;;;;;8.98;67.71;101576.19;15614116;28;20406;-58
2021/04/01 21:59:52;;;;;;;1999.90;999.90;;;;;;;8.74;68.77;101594.88;15614529;28;20346;-60
2021/04/01 22:07:24;;;;;;;1999.90;999.90;;;;;;;8.39;69.27;101605.38;15597114;28;20049;-60
2021/04/01 22:14:57;;;;;;;1999.90;999.90;;;;;;;8.29;69.29;101616.56;15611831;28;20076;-58
2021/04/01 22:22:28;;;;;;;1999.90;999.90;;;;;;;8.35;69.31;101607.09;15593841;28;20063;-59
2021/04/01 22:30:05;;;;;;;1999.90;999.90;;;;;;;8.51;68.40;101599.38;15593825;28;20053;-58
2021/04/01 22:37:37;;;;;;;1999.90;999.90;;;;;;;8.35;69.25;101605.13;15610912;28;20053;-59
2021/04/01 22:45:11;;;;;;;1999.90;999.90;;;;;;;8.26;69.40;101623.56;15610755;28;20048;-59
2021/04/01 22:52:44;;;;;;;1999.90;999.90;;;;;;;8.24;67.97;101614.69;15635886;23;20045;-62
2021/04/01 23:00:21;;;;;;;1999.90;999.90;;;;;;;8.27;66.79;101614.09;15674596;28;20051;-62
2021/04/01 23:07:53;;;;;;;1999.90;999.90;;;;;;;8.44;65.93;101601.69;15680947;28;20091;-61
2021/04/01 23:15:27;;;;;;;1999.90;999.90;;;;;;;8.42;65.70;101610.31;15693895;28;20497;-61
2021/04/01 23:22:58;;;;;;;;;;;;;;;8.43;65.63;101611.97;15678157;28;20573;-61
2021/04/01 23:30:36;;;;;;;1999.90;999.90;;;;;;;8.55;64.76;101609.63;15678482;28;19936;-61
2021/04/01 23:38:09;;;;;;;1999.90;999.90;;;;;;;8.45;65.00;101615.31;15636777;28;20084;-60
2021/04/01 23:45:43;;;;;;;1999.90;999.90;;;;;;;8.19;65.26;101611.13;15675208;28;20041;-62
2021/04/01 23:53:15;;;;;;;1999.90;999.90;;;;;;;8.18;65.74;101621.41;15693183;28;20515;-61
